Garfield, Texas
Current Conditions -  °F | °C
As of 6:53 PM on Monday 22 Dec 2014 (Local Time) from KAUS Reporting Station
Broken Clouds Broken Clouds  
Wind Chill: 61°   Ceiling: 20000
Heat Index: 61°   Visibility: 10mi
Dew Point: 55°   Wind: 5mph
Humidity: 81%   Direction: 200°SSW
Pressure: 29.63"   Gusts: NA
Location:  30.1472°N, 97.5975°W
Report Text: KAUS 230053Z 20004KT 10SM BKN200 16/13 A2963 RMK AO2 SLP031 T01610128
Loading
Personal Weather Stations






























Interactive Weather Map New forecast layout! Learn more

10-Day Weather Forecast

Advertisements
Track Severe Weather on mobile